Matched Transactions 

topic0
0xddf252ad1be2c89b69c2b068fc378daa952ba7f163c4a11628f55a4df523b3ef

A total of 20 transactions found

Txn Hash Method
Block
From
To
Value [Txn Fee]
0x55546f41ed70b89b69cd6bf0b234b8b6ce9f18196b47bd2e4884ec54195c7264Add Liquidity ET...74409832021-05-15 21:00:31164 days 19 hrs agoSpaceMoon: Deployer PancakeSwap: Router v21 BNB0.00166113
0x55546f41ed70b89b69cd6bf0b234b8b6ce9f18196b47bd2e4884ec54195c7264Add Liquidity ET...74409832021-05-15 21:00:31164 days 19 hrs agoSpaceMoon: Deployer PancakeSwap: Router v21 BNB0.00166113
0xbb8910f2a554bec885eb08d0a8cfa804c0923ddddc5c02124bba2c6d0f172bdfAdd Liquidity ET...74451742021-05-16 0:31:59164 days 16 hrs agoSpaceMoon: Deployer PancakeSwap: Router v20.317709425 BNB0.00135907
0xbb8910f2a554bec885eb08d0a8cfa804c0923ddddc5c02124bba2c6d0f172bdfAdd Liquidity ET...74451742021-05-16 0:31:59164 days 16 hrs agoSpaceMoon: Deployer PancakeSwap: Router v20.317709425 BNB0.00135907
0xd796893ec3d0f595e5eb0c4013f6928d8a6c88a100e9a60ad3e77d056edc599cLock LP Token74658542021-05-16 18:01:29163 days 22 hrs agoSpaceMoon: Deployer UniCrypt: Liquidity Lockers V21 BNB0.00183384
0xd796893ec3d0f595e5eb0c4013f6928d8a6c88a100e9a60ad3e77d056edc599cLock LP Token74658542021-05-16 18:01:29163 days 22 hrs agoSpaceMoon: Deployer UniCrypt: Liquidity Lockers V21 BNB0.00183384
0x190e413c156b70e1e6c0450167c8862d561240677c1ce3a183efd2c05895d524Add Liquidity ET...74669062021-05-16 18:54:54163 days 22 hrs agoSpaceMoon: Deployer PancakeSwap: Router v20.5 BNB0.00130071
0x190e413c156b70e1e6c0450167c8862d561240677c1ce3a183efd2c05895d524Add Liquidity ET...74669062021-05-16 18:54:54163 days 22 hrs agoSpaceMoon: Deployer PancakeSwap: Router v20.5 BNB0.00130071
0x8f348bd5e240c4fe30d7ecb959b953283a1a85c8ec5d843f41288ab38a4bfa1dRemove Liquidity...74902132021-05-17 14:33:38163 days 2 hrs agoSpaceMoon: Deployer PancakeSwap: Router v20 BNB0.00204204
0x8f348bd5e240c4fe30d7ecb959b953283a1a85c8ec5d843f41288ab38a4bfa1dRemove Liquidity...74902132021-05-17 14:33:38163 days 2 hrs agoSpaceMoon: Deployer PancakeSwap: Router v20 BNB0.00204204
0x8f348bd5e240c4fe30d7ecb959b953283a1a85c8ec5d843f41288ab38a4bfa1dRemove Liquidity...74902132021-05-17 14:33:38163 days 2 hrs agoSpaceMoon: Deployer PancakeSwap: Router v20 BNB0.00204204
0x06515ad9fd9c95295a1570f2171b415f11daec59bf245596a9a771ad9439a646Remove Liquidity...74903932021-05-17 14:42:38163 days 2 hrs agoSpaceMoon: Deployer PancakeSwap: Router v20 BNB0.00189204
0x06515ad9fd9c95295a1570f2171b415f11daec59bf245596a9a771ad9439a646Remove Liquidity...74903932021-05-17 14:42:38163 days 2 hrs agoSpaceMoon: Deployer PancakeSwap: Router v20 BNB0.00189204
0x06515ad9fd9c95295a1570f2171b415f11daec59bf245596a9a771ad9439a646Remove Liquidity...74903932021-05-17 14:42:38163 days 2 hrs agoSpaceMoon: Deployer PancakeSwap: Router v20 BNB0.00189204
0x2ba4cf3a5e3c8edd30a9f3d51ccb349e56c2ad1795dc60061cff6ba027a433c1Remove Liquidity...74905452021-05-17 14:50:16163 days 2 hrs agoSpaceMoon: Deployer PancakeSwap: Router v20 BNB0.00189198
0x2ba4cf3a5e3c8edd30a9f3d51ccb349e56c2ad1795dc60061cff6ba027a433c1Remove Liquidity...74905452021-05-17 14:50:16163 days 2 hrs agoSpaceMoon: Deployer PancakeSwap: Router v20 BNB0.00189198
0x2ba4cf3a5e3c8edd30a9f3d51ccb349e56c2ad1795dc60061cff6ba027a433c1Remove Liquidity...74905452021-05-17 14:50:16163 days 2 hrs agoSpaceMoon: Deployer PancakeSwap: Router v20 BNB0.00189198
0x350f9991031f3aabe0ca9d08fe4437c69ab6e627e8432ab0bf373e6534ff96b7Remove Liquidity...77767442021-05-27 15:13:09153 days 1 hr agoSpaceMoon: Deployer PancakeSwap: Router v20 BNB0.0018171
0x350f9991031f3aabe0ca9d08fe4437c69ab6e627e8432ab0bf373e6534ff96b7Remove Liquidity...77767442021-05-27 15:13:09153 days 1 hr agoSpaceMoon: Deployer PancakeSwap: Router v20 BNB0.0018171
0x350f9991031f3aabe0ca9d08fe4437c69ab6e627e8432ab0bf373e6534ff96b7Remove Liquidity...77767442021-05-27 15:13:09153 days 1 hr agoSpaceMoon: Deployer PancakeSwap: Router v20 BNB0.0018171
Show Records
  • First
  • Previous
  • Page 1 of 1
  • Previous
  • Last